sensor_id;sensor_type;location;lat;lon;timestamp;P1;durP1;ratioP1;P2;durP2;ratioP2
52854;SDS011;38719;51.418;7.286;2023-04-01T00:02:03;1.83;;;1.60;;
52854;SDS011;38719;51.418;7.286;2023-04-01T00:04:31;2.92;;;1.80;;
52854;SDS011;38719;51.418;7.286;2023-04-01T00:06:59;3.63;;;1.92;;
52854;SDS011;38719;51.418;7.286;2023-04-01T00:09:27;6.60;;;2.03;;
52854;SDS011;38719;51.418;7.286;2023-04-01T00:11:55;2.30;;;1.83;;
52854;SDS011;38719;51.418;7.286;2023-04-01T00:14:24;2.85;;;1.80;;
52854;SDS011;38719;51.418;7.286;2023-04-01T00:16:52;5.90;;;1.92;;
52854;SDS011;38719;51.418;7.286;2023-04-01T00:19:19;5.57;;;2.22;;
52854;SDS011;38719;51.418;7.286;2023-04-01T00:21:47;3.88;;;2.10;;
52854;SDS011;38719;51.418;7.286;2023-04-01T00:24:15;4.55;;;2.15;;
52854;SDS011;38719;51.418;7.286;2023-04-01T00:26:42;1.80;;;1.70;;
52854;SDS011;38719;51.418;7.286;2023-04-01T00:29:10;2.35;;;1.98;;
52854;SDS011;38719;51.418;7.286;2023-04-01T00:31:39;5.65;;;1.90;;
52854;SDS011;38719;51.418;7.286;2023-04-01T00:34:07;4.43;;;2.03;;
52854;SDS011;38719;51.418;7.286;2023-04-01T00:36:34;2.35;;;1.80;;
52854;SDS011;38719;51.418;7.286;2023-04-01T00:39:02;5.50;;;1.90;;
52854;SDS011;38719;51.418;7.286;2023-04-01T00:41:29;2.47;;;1.90;;
52854;SDS011;38719;51.418;7.286;2023-04-01T00:44:11;2.60;;;1.60;;
52854;SDS011;38719;51.418;7.286;2023-04-01T00:46:45;2.20;;;1.75;;
52854;SDS011;38719;51.418;7.286;2023-04-01T00:49:14;2.42;;;1.90;;
52854;SDS011;38719;51.418;7.286;2023-04-01T00:51:43;3.65;;;2.10;;
52854;SDS011;38719;51.418;7.286;2023-04-01T00:54:15;1.98;;;1.83;;
52854;SDS011;38719;51.418;7.286;2023-04-01T00:56:45;3.42;;;1.80;;
52854;SDS011;38719;51.418;7.286;2023-04-01T00:59:16;1.90;;;1.80;;
52854;SDS011;38719;51.418;7.286;2023-04-01T01:01:49;1.90;;;1.80;;
52854;SDS011;38719;51.418;7.286;2023-04-01T01:04:21;2.10;;;1.90;;
52854;SDS011;38719;51.418;7.286;2023-04-01T01:06:51;1.80;;;1.70;;
52854;SDS011;38719;51.418;7.286;2023-04-01T01:09:32;1.90;;;1.80;;
52854;SDS011;38719;51.418;7.286;2023-04-01T01:12:10;2.70;;;1.80;;
52854;SDS011;38719;51.418;7.286;2023-04-01T01:17:37;1.63;;;1.60;;
52854;SDS011;38719;51.418;7.286;2023-04-01T01:20:30;1.90;;;1.80;;
52854;SDS011;38719;51.418;7.286;2023-04-01T01:26:20;4.05;;;2.13;;
52854;SDS011;38719;51.418;7.286;2023-04-01T01:29:07;3.30;;;2.20;;
52854;SDS011;38719;51.418;7.286;2023-04-01T01:31:47;1.90;;;1.80;;
52854;SDS011;38719;51.418;7.286;2023-04-01T01:34:24;1.80;;;1.70;;
52854;SDS011;38719;51.418;7.286;2023-04-01T01:37:05;2.47;;;2.10;;
52854;SDS011;38719;51.418;7.286;2023-04-01T01:39:37;3.10;;;1.80;;
52854;SDS011;38719;51.418;7.286;2023-04-01T01:42:09;5.03;;;1.90;;
52854;SDS011;38719;51.418;7.286;2023-04-01T01:44:38;1.92;;;1.77;;
52854;SDS011;38719;51.418;7.286;2023-04-01T01:47:10;2.58;;;1.80;;
52854;SDS011;38719;51.418;7.286;2023-04-01T01:49:38;2.22;;;1.63;;
52854;SDS011;38719;51.418;7.286;2023-04-01T01:52:09;2.33;;;1.83;;
52854;SDS011;38719;51.418;7.286;2023-04-01T01:54:46;1.80;;;1.70;;
52854;SDS011;38719;51.418;7.286;2023-04-01T01:57:14;2.30;;;1.77;;
52854;SDS011;38719;51.418;7.286;2023-04-01T01:59:44;2.47;;;1.77;;
52854;SDS011;38719;51.418;7.286;2023-04-01T02:02:13;1.73;;;1.63;;
52854;SDS011;38719;51.418;7.286;2023-04-01T02:04:42;3.80;;;1.85;;
52854;SDS011;38719;51.418;7.286;2023-04-01T02:07:15;2.03;;;1.80;;
52854;SDS011;38719;51.418;7.286;2023-04-01T02:09:47;1.95;;;1.65;;
52854;SDS011;38719;51.418;7.286;2023-04-01T02:12:16;1.58;;;1.52;;
52854;SDS011;38719;51.418;7.286;2023-04-01T02:14:47;1.85;;;1.73;;
52854;SDS011;38719;51.418;7.286;2023-04-01T02:17:20;2.67;;;1.80;;
52854;SDS011;38719;51.418;7.286;2023-04-01T02:19:49;1.70;;;1.60;;
52854;SDS011;38719;51.418;7.286;2023-04-01T02:22:23;1.70;;;1.60;;
52854;SDS011;38719;51.418;7.286;2023-04-01T02:24:53;3.83;;;1.80;;
52854;SDS011;38719;51.418;7.286;2023-04-01T02:27:24;3.42;;;1.83;;
52854;SDS011;38719;51.418;7.286;2023-04-01T02:29:52;1.92;;;1.80;;
52854;SDS011;38719;51.418;7.286;2023-04-01T02:32:20;1.42;;;1.40;;
52854;SDS011;38719;51.418;7.286;2023-04-01T02:34:48;1.50;;;1.40;;
52854;SDS011;38719;51.418;7.286;2023-04-01T02:37:16;2.67;;;1.90;;
52854;SDS011;38719;51.418;7.286;2023-04-01T02:39:46;3.38;;;1.70;;
52854;SDS011;38719;51.418;7.286;2023-04-01T02:42:13;1.70;;;1.60;;
52854;SDS011;38719;51.418;7.286;2023-04-01T02:44:41;1.48;;;1.42;;
52854;SDS011;38719;51.418;7.286;2023-04-01T02:47:09;1.70;;;1.60;;
52854;SDS011;38719;51.418;7.286;2023-04-01T02:49:36;4.63;;;1.80;;
52854;SDS011;38719;51.418;7.286;2023-04-01T02:52:04;2.00;;;1.50;;
52854;SDS011;38719;51.418;7.286;2023-04-01T02:54:34;1.70;;;1.40;;
52854;SDS011;38719;51.418;7.286;2023-04-01T02:57:06;2.25;;;1.50;;
52854;SDS011;38719;51.418;7.286;2023-04-01T02:59:34;1.85;;;1.42;;
52854;SDS011;38719;51.418;7.286;2023-04-01T03:02:01;1.30;;;1.30;;
52854;SDS011;38719;51.418;7.286;2023-04-01T03:04:29;2.53;;;1.80;;
52854;SDS011;38719;51.418;7.286;2023-04-01T03:06:56;1.60;;;1.50;;
52854;SDS011;38719;51.418;7.286;2023-04-01T03:09:24;1.30;;;1.30;;
52854;SDS011;38719;51.418;7.286;2023-04-01T03:11:52;1.67;;;1.40;;
52854;SDS011;38719;51.418;7.286;2023-04-01T03:14:20;1.60;;;1.50;;
52854;SDS011;38719;51.418;7.286;2023-04-01T03:16:48;1.83;;;1.73;;
52854;SDS011;38719;51.418;7.286;2023-04-01T03:19:15;3.13;;;1.63;;
52854;SDS011;38719;51.418;7.286;2023-04-01T03:21:43;1.20;;;1.20;;
52854;SDS011;38719;51.418;7.286;2023-04-01T03:24:10;1.10;;;1.10;;
52854;SDS011;38719;51.418;7.286;2023-04-01T03:26:38;2.00;;;1.25;;
52854;SDS011;38719;51.418;7.286;2023-04-01T03:29:05;1.42;;;1.40;;
52854;SDS011;38719;51.418;7.286;2023-04-01T03:31:34;2.38;;;1.63;;
52854;SDS011;38719;51.418;7.286;2023-04-01T03:34:01;3.53;;;1.55;;
52854;SDS011;38719;51.418;7.286;2023-04-01T03:36:29;1.30;;;1.30;;
52854;SDS011;38719;51.418;7.286;2023-04-01T03:38:56;1.75;;;1.40;;
52854;SDS011;38719;51.418;7.286;2023-04-01T03:41:24;1.73;;;1.30;;
52854;SDS011;38719;51.418;7.286;2023-04-01T03:43:53;1.40;;;1.30;;
52854;SDS011;38719;51.418;7.286;2023-04-01T03:46:21;1.60;;;1.50;;
52854;SDS011;38719;51.418;7.286;2023-04-01T03:48:50;1.60;;;1.50;;
52854;SDS011;38719;51.418;7.286;2023-04-01T03:51:17;2.33;;;1.52;;
52854;SDS011;38719;51.418;7.286;2023-04-01T03:53:44;1.63;;;1.52;;
52854;SDS011;38719;51.418;7.286;2023-04-01T03:56:12;1.60;;;1.50;;
52854;SDS011;38719;51.418;7.286;2023-04-01T03:58:39;1.40;;;1.35;;
52854;SDS011;38719;51.418;7.286;2023-04-01T04:01:14;2.60;;;1.60;;
52854;SDS011;38719;51.418;7.286;2023-04-01T04:03:42;1.48;;;1.42;;
52854;SDS011;38719;51.418;7.286;2023-04-01T04:06:13;1.73;;;1.63;;
52854;SDS011;38719;51.418;7.286;2023-04-01T04:08:41;1.70;;;1.60;;
52854;SDS011;38719;51.418;7.286;2023-04-01T04:11:09;1.70;;;1.60;;
52854;SDS011;38719;51.418;7.286;2023-04-01T04:13:37;1.70;;;1.60;;
52854;SDS011;38719;51.418;7.286;2023-04-01T04:16:04;1.70;;;1.60;;
52854;SDS011;38719;51.418;7.286;2023-04-01T04:18:32;1.90;;;1.80;;
52854;SDS011;38719;51.418;7.286;2023-04-01T04:21:00;1.88;;;1.77;;
52854;SDS011;38719;51.418;7.286;2023-04-01T04:23:29;4.70;;;2.20;;
52854;SDS011;38719;51.418;7.286;2023-04-01T04:25:59;2.28;;;1.80;;
52854;SDS011;38719;51.418;7.286;2023-04-01T04:28:28;4.28;;;2.40;;
52854;SDS011;38719;51.418;7.286;2023-04-01T04:30:56;1.80;;;1.70;;
52854;SDS011;38719;51.418;7.286;2023-04-01T04:33:24;2.08;;;1.98;;
52854;SDS011;38719;51.418;7.286;2023-04-01T04:35:54;2.67;;;2.00;;
52854;SDS011;38719;51.418;7.286;2023-04-01T04:38:23;7.20;;;1.90;;
52854;SDS011;38719;51.418;7.286;2023-04-01T04:40:52;3.13;;;2.00;;
52854;SDS011;38719;51.418;7.286;2023-04-01T04:43:20;2.03;;;1.92;;
52854;SDS011;38719;51.418;7.286;2023-04-01T04:45:48;3.92;;;1.98;;
52854;SDS011;38719;51.418;7.286;2023-04-01T04:48:16;1.83;;;1.73;;
52854;SDS011;38719;51.418;7.286;2023-04-01T04:50:46;2.15;;;1.63;;
52854;SDS011;38719;51.418;7.286;2023-04-01T04:53:15;2.22;;;1.90;;
52854;SDS011;38719;51.418;7.286;2023-04-01T04:55:44;1.85;;;1.67;;
52854;SDS011;38719;51.418;7.286;2023-04-01T04:58:13;1.85;;;1.75;;
52854;SDS011;38719;51.418;7.286;2023-04-01T05:00:41;1.88;;;1.77;;
52854;SDS011;38719;51.418;7.286;2023-04-01T05:03:09;2.25;;;2.00;;
52854;SDS011;38719;51.418;7.286;2023-04-01T05:05:38;2.10;;;1.90;;
52854;SDS011;38719;51.418;7.286;2023-04-01T05:08:06;2.13;;;1.73;;
52854;SDS011;38719;51.418;7.286;2023-04-01T05:10:34;1.85;;;1.75;;
52854;SDS011;38719;51.418;7.286;2023-04-01T05:13:01;2.10;;;1.90;;
52854;SDS011;38719;51.418;7.286;2023-04-01T05:15:30;1.92;;;1.83;;
52854;SDS011;38719;51.418;7.286;2023-04-01T05:17:58;2.28;;;1.60;;
52854;SDS011;38719;51.418;7.286;2023-04-01T05:20:26;1.70;;;1.60;;
52854;SDS011;38719;51.418;7.286;2023-04-01T05:22:55;2.78;;;1.70;;
52854;SDS011;38719;51.418;7.286;2023-04-01T05:25:23;1.80;;;1.70;;
52854;SDS011;38719;51.418;7.286;2023-04-01T05:27:51;5.25;;;1.70;;
52854;SDS011;38719;51.418;7.286;2023-04-01T05:30:18;1.60;;;1.50;;
52854;SDS011;38719;51.418;7.286;2023-04-01T05:32:47;1.73;;;1.63;;
52854;SDS011;38719;51.418;7.286;2023-04-01T05:35:15;1.70;;;1.60;;
52854;SDS011;38719;51.418;7.286;2023-04-01T05:37:42;3.58;;;1.70;;
52854;SDS011;38719;51.418;7.286;2023-04-01T05:40:10;1.80;;;1.70;;
52854;SDS011;38719;51.418;7.286;2023-04-01T05:42:38;1.85;;;1.75;;
52854;SDS011;38719;51.418;7.286;2023-04-01T05:45:06;1.90;;;1.80;;
52854;SDS011;38719;51.418;7.286;2023-04-01T05:47:35;2.00;;;1.90;;
52854;SDS011;38719;51.418;7.286;2023-04-01T05:50:04;1.75;;;1.65;;
52854;SDS011;38719;51.418;7.286;2023-04-01T05:52:32;1.80;;;1.70;;
52854;SDS011;38719;51.418;7.286;2023-04-01T05:54:59;1.80;;;1.70;;
52854;SDS011;38719;51.418;7.286;2023-04-01T05:57:27;1.65;;;1.55;;
52854;SDS011;38719;51.418;7.286;2023-04-01T05:59:54;1.85;;;1.70;;
52854;SDS011;38719;51.418;7.286;2023-04-01T06:02:22;1.63;;;1.52;;
52854;SDS011;38719;51.418;7.286;2023-04-01T06:04:49;1.70;;;1.60;;
52854;SDS011;38719;51.418;7.286;2023-04-01T06:07:30;2.28;;;2.03;;
52854;SDS011;38719;51.418;7.286;2023-04-01T06:09:58;1.70;;;1.60;;
52854;SDS011;38719;51.418;7.286;2023-04-01T06:12:33;1.70;;;1.60;;
52854;SDS011;38719;51.418;7.286;2023-04-01T06:15:13;1.80;;;1.70;;
52854;SDS011;38719;51.418;7.286;2023-04-01T06:17:51;1.80;;;1.70;;
52854;SDS011;38719;51.418;7.286;2023-04-01T06:20:29;1.70;;;1.60;;
52854;SDS011;38719;51.418;7.286;2023-04-01T06:23:09;1.60;;;1.50;;
52854;SDS011;38719;51.418;7.286;2023-04-01T06:25:50;1.50;;;1.50;;
52854;SDS011;38719;51.418;7.286;2023-04-01T06:28:33;2.45;;;1.73;;
52854;SDS011;38719;51.418;7.286;2023-04-01T06:31:10;1.73;;;1.63;;
52854;SDS011;38719;51.418;7.286;2023-04-01T06:33:52;1.70;;;1.60;;
52854;SDS011;38719;51.418;7.286;2023-04-01T06:36:43;1.88;;;1.77;;
52854;SDS011;38719;51.418;7.286;2023-04-01T06:39:29;1.73;;;1.63;;
52854;SDS011;38719;51.418;7.286;2023-04-01T06:42:18;1.73;;;1.63;;
52854;SDS011;38719;51.418;7.286;2023-04-01T06:44:55;1.67;;;1.58;;
52854;SDS011;38719;51.418;7.286;2023-04-01T06:47:36;4.78;;;1.80;;
52854;SDS011;38719;51.418;7.286;2023-04-01T06:50:15;1.80;;;1.70;;
52854;SDS011;38719;51.418;7.286;2023-04-01T06:52:50;1.65;;;1.55;;
52854;SDS011;38719;51.418;7.286;2023-04-01T06:55:27;1.52;;;1.42;;
52854;SDS011;38719;51.418;7.286;2023-04-01T06:58:01;1.60;;;1.50;;
52854;SDS011;38719;51.418;7.286;2023-04-01T07:00:32;1.60;;;1.50;;
52854;SDS011;38719;51.418;7.286;2023-04-01T07:03:09;1.50;;;1.40;;
52854;SDS011;38719;51.418;7.286;2023-04-01T07:05:45;1.55;;;1.45;;
52854;SDS011;38719;51.418;7.286;2023-04-01T07:08:13;1.70;;;1.60;;
52854;SDS011;38719;51.418;7.286;2023-04-01T07:10:47;1.60;;;1.50;;
52854;SDS011;38719;51.418;7.286;2023-04-01T07:13:21;1.77;;;1.67;;
52854;SDS011;38719;51.418;7.286;2023-04-01T07:15:59;4.30;;;1.73;;
52854;SDS011;38719;51.418;7.286;2023-04-01T07:18:34;1.90;;;1.80;;
52854;SDS011;38719;51.418;7.286;2023-04-01T07:21:10;1.77;;;1.67;;
52854;SDS011;38719;51.418;7.286;2023-04-01T07:23:46;3.00;;;1.77;;
52854;SDS011;38719;51.418;7.286;2023-04-01T07:26:18;1.98;;;1.80;;
52854;SDS011;38719;51.418;7.286;2023-04-01T07:28:47;2.05;;;1.95;;
52854;SDS011;38719;51.418;7.286;2023-04-01T07:31:18;2.10;;;1.90;;
52854;SDS011;38719;51.418;7.286;2023-04-01T07:33:54;1.90;;;1.80;;
52854;SDS011;38719;51.418;7.286;2023-04-01T07:36:30;2.15;;;1.88;;
52854;SDS011;38719;51.418;7.286;2023-04-01T07:39:08;2.75;;;1.80;;
52854;SDS011;38719;51.418;7.286;2023-04-01T07:41:51;1.90;;;1.80;;
52854;SDS011;38719;51.418;7.286;2023-04-01T07:44:25;2.00;;;1.80;;
52854;SDS011;38719;51.418;7.286;2023-04-01T07:47:05;1.95;;;1.80;;
52854;SDS011;38719;51.418;7.286;2023-04-01T07:50:02;1.88;;;1.70;;
52854;SDS011;38719;51.418;7.286;2023-04-01T07:52:38;1.90;;;1.80;;
52854;SDS011;38719;51.418;7.286;2023-04-01T07:55:13;2.70;;;1.77;;
52854;SDS011;38719;51.418;7.286;2023-04-01T07:57:49;1.60;;;1.50;;
52854;SDS011;38719;51.418;7.286;2023-04-01T08:00:21;1.70;;;1.60;;
52854;SDS011;38719;51.418;7.286;2023-04-01T08:02:56;1.60;;;1.50;;
52854;SDS011;38719;51.418;7.286;2023-04-01T08:05:39;1.70;;;1.60;;
52854;SDS011;38719;51.418;7.286;2023-04-01T08:08:13;2.53;;;1.60;;
52854;SDS011;38719;51.418;7.286;2023-04-01T08:10:46;1.55;;;1.45;;
52854;SDS011;38719;51.418;7.286;2023-04-01T08:13:24;1.65;;;1.55;;
52854;SDS011;38719;51.418;7.286;2023-04-01T08:16:05;2.17;;;1.60;;
52854;SDS011;38719;51.418;7.286;2023-04-01T08:18:41;1.73;;;1.63;;
52854;SDS011;38719;51.418;7.286;2023-04-01T08:21:17;1.67;;;1.58;;
52854;SDS011;38719;51.418;7.286;2023-04-01T08:23:49;1.70;;;1.60;;
52854;SDS011;38719;51.418;7.286;2023-04-01T08:26:22;1.77;;;1.65;;
52854;SDS011;38719;51.418;7.286;2023-04-01T08:28:58;2.53;;;1.70;;
52854;SDS011;38719;51.418;7.286;2023-04-01T08:31:30;1.73;;;1.50;;
52854;SDS011;38719;51.418;7.286;2023-04-01T08:34:02;2.03;;;1.60;;
52854;SDS011;38719;51.418;7.286;2023-04-01T08:36:33;1.75;;;1.65;;
52854;SDS011;38719;51.418;7.286;2023-04-01T08:39:04;1.98;;;1.77;;
52854;SDS011;38719;51.418;7.286;2023-04-01T08:41:41;2.05;;;1.80;;
52854;SDS011;38719;51.418;7.286;2023-04-01T08:44:35;2.25;;;1.80;;
52854;SDS011;38719;51.418;7.286;2023-04-01T08:47:32;2.08;;;1.98;;
52854;SDS011;38719;51.418;7.286;2023-04-01T08:50:19;3.97;;;2.30;;
52854;SDS011;38719;51.418;7.286;2023-04-01T08:53:00;2.47;;;1.80;;
52854;SDS011;38719;51.418;7.286;2023-04-01T08:55:38;1.98;;;1.80;;
52854;SDS011;38719;51.418;7.286;2023-04-01T08:58:20;1.95;;;1.85;;
52854;SDS011;38719;51.418;7.286;2023-04-01T09:03:58;3.30;;;1.95;;
52854;SDS011;38719;51.418;7.286;2023-04-01T09:06:46;2.47;;;2.17;;
52854;SDS011;38719;51.418;7.286;2023-04-01T09:09:27;2.92;;;2.20;;
52854;SDS011;38719;51.418;7.286;2023-04-01T09:12:26;3.15;;;2.20;;
52854;SDS011;38719;51.418;7.286;2023-04-01T09:15:19;2.10;;;2.00;;
52854;SDS011;38719;51.418;7.286;2023-04-01T09:21:15;2.80;;;2.10;;
52854;SDS011;38719;51.418;7.286;2023-04-01T09:24:01;2.33;;;2.13;;
52854;SDS011;38719;51.418;7.286;2023-04-01T09:29:47;2.22;;;2.03;;
52854;SDS011;38719;51.418;7.286;2023-04-01T09:35:45;2.65;;;2.45;;
52854;SDS011;38719;51.418;7.286;2023-04-01T09:38:27;3.13;;;2.70;;
52854;SDS011;38719;51.418;7.286;2023-04-01T09:40:57;3.80;;;2.70;;
52854;SDS011;38719;51.418;7.286;2023-04-01T09:43:43;3.03;;;2.65;;
52854;SDS011;38719;51.418;7.286;2023-04-01T09:46:26;4.93;;;3.15;;
52854;SDS011;38719;51.418;7.286;2023-04-01T09:49:14;4.30;;;3.28;;
52854;SDS011;38719;51.418;7.286;2023-04-01T09:52:01;4.18;;;2.97;;
52854;SDS011;38719;51.418;7.286;2023-04-01T09:54:56;3.65;;;3.28;;
52854;SDS011;38719;51.418;7.286;2023-04-01T09:57:51;4.65;;;3.63;;
52854;SDS011;38719;51.418;7.286;2023-04-01T10:00:52;3.60;;;3.30;;
52854;SDS011;38719;51.418;7.286;2023-04-01T10:03:49;6.43;;;3.80;;
52854;SDS011;38719;51.418;7.286;2023-04-01T10:06:51;4.22;;;3.83;;
52854;SDS011;38719;51.418;7.286;2023-04-01T10:10:02;4.50;;;3.67;;
52854;SDS011;38719;51.418;7.286;2023-04-01T10:13:07;4.10;;;3.70;;
52854;SDS011;38719;51.418;7.286;2023-04-01T10:22:02;5.60;;;4.60;;
52854;SDS011;38719;51.418;7.286;2023-04-01T10:24:51;6.07;;;4.50;;
52854;SDS011;38719;51.418;7.286;2023-04-01T10:27:41;5.15;;;4.10;;
52854;SDS011;38719;51.418;7.286;2023-04-01T10:30:52;5.65;;;4.50;;
52854;SDS011;38719;51.418;7.286;2023-04-01T10:33:43;5.53;;;4.00;;
52854;SDS011;38719;51.418;7.286;2023-04-01T10:39:30;6.97;;;4.22;;
52854;SDS011;38719;51.418;7.286;2023-04-01T10:42:20;5.72;;;4.45;;
52854;SDS011;38719;51.418;7.286;2023-04-01T10:45:33;4.85;;;3.70;;
52854;SDS011;38719;51.418;7.286;2023-04-01T10:48:39;5.40;;;4.18;;
52854;SDS011;38719;51.418;7.286;2023-04-01T10:51:32;5.95;;;4.38;;
52854;SDS011;38719;51.418;7.286;2023-04-01T10:54:36;7.35;;;4.78;;
52854;SDS011;38719;51.418;7.286;2023-04-01T10:57:24;4.03;;;3.63;;
52854;SDS011;38719;51.418;7.286;2023-04-01T11:03:33;4.75;;;3.95;;
52854;SDS011;38719;51.418;7.286;2023-04-01T11:16:12;5.90;;;4.10;;
52854;SDS011;38719;51.418;7.286;2023-04-01T11:19:16;6.03;;;4.38;;
52854;SDS011;38719;51.418;7.286;2023-04-01T11:22:10;5.55;;;4.00;;
52854;SDS011;38719;51.418;7.286;2023-04-01T11:24:59;4.30;;;3.60;;
52854;SDS011;38719;51.418;7.286;2023-04-01T11:27:51;3.88;;;3.38;;
52854;SDS011;38719;51.418;7.286;2023-04-01T11:30:46;6.97;;;3.22;;
52854;SDS011;38719;51.418;7.286;2023-04-01T11:33:28;5.63;;;3.13;;
52854;SDS011;38719;51.418;7.286;2023-04-01T11:39:11;5.63;;;3.80;;
52854;SDS011;38719;51.418;7.286;2023-04-01T11:41:52;5.95;;;3.42;;
52854;SDS011;38719;51.418;7.286;2023-04-01T11:44:26;3.50;;;3.10;;
52854;SDS011;38719;51.418;7.286;2023-04-01T11:47:00;3.50;;;3.08;;
52854;SDS011;38719;51.418;7.286;2023-04-01T11:49:49;3.88;;;3.47;;
52854;SDS011;38719;51.418;7.286;2023-04-01T11:55:15;6.63;;;3.35;;
52854;SDS011;38719;51.418;7.286;2023-04-01T11:57:53;6.03;;;3.70;;
52854;SDS011;38719;51.418;7.286;2023-04-01T12:00:41;4.03;;;3.60;;
52854;SDS011;38719;51.418;7.286;2023-04-01T12:03:42;5.18;;;3.20;;
52854;SDS011;38719;51.418;7.286;2023-04-01T12:06:21;3.95;;;3.35;;
52854;SDS011;38719;51.418;7.286;2023-04-01T12:09:00;3.58;;;3.20;;
52854;SDS011;38719;51.418;7.286;2023-04-01T12:11:33;4.22;;;3.20;;
52854;SDS011;38719;51.418;7.286;2023-04-01T12:14:08;4.10;;;3.55;;
52854;SDS011;38719;51.418;7.286;2023-04-01T12:16:46;4.93;;;3.58;;
52854;SDS011;38719;51.418;7.286;2023-04-01T12:19:27;6.75;;;3.63;;
52854;SDS011;38719;51.418;7.286;2023-04-01T12:22:22;5.78;;;3.50;;
52854;SDS011;38719;51.418;7.286;2023-04-01T12:25:07;3.40;;;3.03;;
52854;SDS011;38719;51.418;7.286;2023-04-01T12:27:59;3.40;;;3.00;;
52854;SDS011;38719;51.418;7.286;2023-04-01T12:30:35;3.15;;;2.85;;
52854;SDS011;38719;51.418;7.286;2023-04-01T12:33:18;3.28;;;2.90;;
52854;SDS011;38719;51.418;7.286;2023-04-01T12:36:04;3.22;;;2.92;;
52854;SDS011;38719;51.418;7.286;2023-04-01T12:38:44;3.22;;;2.80;;
52854;SDS011;38719;51.418;7.286;2023-04-01T12:41:23;4.47;;;3.40;;
52854;SDS011;38719;51.418;7.286;2023-04-01T12:44:02;4.72;;;3.60;;
52854;SDS011;38719;51.418;7.286;2023-04-01T12:46:41;4.25;;;3.78;;
52854;SDS011;38719;51.418;7.286;2023-04-01T12:49:25;3.53;;;3.20;;
52854;SDS011;38719;51.418;7.286;2023-04-01T12:52:05;3.15;;;2.92;;
52854;SDS011;38719;51.418;7.286;2023-04-01T12:54:46;3.97;;;3.08;;
52854;SDS011;38719;51.418;7.286;2023-04-01T13:00:38;3.75;;;3.00;;
52854;SDS011;38719;51.418;7.286;2023-04-01T13:03:19;3.13;;;2.85;;
52854;SDS011;38719;51.418;7.286;2023-04-01T13:06:20;3.67;;;3.28;;
52854;SDS011;38719;51.418;7.286;2023-04-01T13:08:57;4.15;;;3.33;;
52854;SDS011;38719;51.418;7.286;2023-04-01T13:11:36;4.97;;;3.78;;
52854;SDS011;38719;51.418;7.286;2023-04-01T13:14:24;4.78;;;3.83;;
52854;SDS011;38719;51.418;7.286;2023-04-01T13:17:02;4.85;;;3.97;;
52854;SDS011;38719;51.418;7.286;2023-04-01T13:19:38;4.68;;;4.13;;
52854;SDS011;38719;51.418;7.286;2023-04-01T13:22:30;6.90;;;5.32;;
52854;SDS011;38719;51.418;7.286;2023-04-01T13:25:09;5.32;;;4.45;;
52854;SDS011;38719;51.418;7.286;2023-04-01T13:27:49;6.82;;;5.50;;
52854;SDS011;38719;51.418;7.286;2023-04-01T13:30:24;7.55;;;5.32;;
52854;SDS011;38719;51.418;7.286;2023-04-01T13:32:57;10.45;;;5.85;;
52854;SDS011;38719;51.418;7.286;2023-04-01T13:35:31;7.00;;;5.07;;
52854;SDS011;38719;51.418;7.286;2023-04-01T13:38:16;6.22;;;5.20;;
52854;SDS011;38719;51.418;7.286;2023-04-01T13:40:59;10.73;;;5.28;;
52854;SDS011;38719;51.418;7.286;2023-04-01T13:43:35;6.28;;;4.90;;
52854;SDS011;38719;51.418;7.286;2023-04-01T13:46:10;5.70;;;4.50;;
52854;SDS011;38719;51.418;7.286;2023-04-01T13:48:55;5.18;;;4.45;;
52854;SDS011;38719;51.418;7.286;2023-04-01T13:51:52;4.97;;;4.40;;
52854;SDS011;38719;51.418;7.286;2023-04-01T13:54:47;5.80;;;4.25;;
52854;SDS011;38719;51.418;7.286;2023-04-01T13:57:37;5.18;;;4.55;;
52854;SDS011;38719;51.418;7.286;2023-04-01T14:00:36;6.22;;;3.90;;
52854;SDS011;38719;51.418;7.286;2023-04-01T14:06:19;5.53;;;3.63;;
52854;SDS011;38719;51.418;7.286;2023-04-01T14:08:59;5.03;;;4.07;;
52854;SDS011;38719;51.418;7.286;2023-04-01T14:11:39;5.40;;;4.00;;
52854;SDS011;38719;51.418;7.286;2023-04-01T14:14:14;4.55;;;3.50;;
52854;SDS011;38719;51.418;7.286;2023-04-01T14:16:57;6.63;;;3.95;;
52854;SDS011;38719;51.418;7.286;2023-04-01T14:19:49;5.05;;;3.22;;
52854;SDS011;38719;51.418;7.286;2023-04-01T14:22:31;4.95;;;3.40;;
52854;SDS011;38719;51.418;7.286;2023-04-01T14:25:20;3.50;;;3.20;;
52854;SDS011;38719;51.418;7.286;2023-04-01T14:28:03;6.72;;;3.10;;
52854;SDS011;38719;51.418;7.286;2023-04-01T14:33:46;5.85;;;3.50;;
52854;SDS011;38719;51.418;7.286;2023-04-01T14:36:38;4.80;;;3.70;;
52854;SDS011;38719;51.418;7.286;2023-04-01T14:39:35;7.45;;;3.80;;
52854;SDS011;38719;51.418;7.286;2023-04-01T14:42:19;7.18;;;3.85;;
52854;SDS011;38719;51.418;7.286;2023-04-01T14:45:02;5.25;;;3.50;;
52854;SDS011;38719;51.418;7.286;2023-04-01T14:47:48;5.82;;;4.22;;
52854;SDS011;38719;51.418;7.286;2023-04-01T14:50:22;4.53;;;3.60;;
52854;SDS011;38719;51.418;7.286;2023-04-01T14:52:55;7.43;;;4.25;;
52854;SDS011;38719;51.418;7.286;2023-04-01T14:55:32;10.45;;;4.55;;
52854;SDS011;38719;51.418;7.286;2023-04-01T14:58:12;5.22;;;3.85;;
52854;SDS011;38719;51.418;7.286;2023-04-01T15:00:43;5.05;;;3.75;;
52854;SDS011;38719;51.418;7.286;2023-04-01T15:03:17;6.30;;;4.20;;
52854;SDS011;38719;51.418;7.286;2023-04-01T15:05:52;3.97;;;3.58;;
52854;SDS011;38719;51.418;7.286;2023-04-01T15:08:28;4.70;;;3.75;;
52854;SDS011;38719;51.418;7.286;2023-04-01T15:11:21;4.57;;;3.72;;
52854;SDS011;38719;51.418;7.286;2023-04-01T15:17:05;5.93;;;3.92;;
52854;SDS011;38719;51.418;7.286;2023-04-01T15:19:53;5.15;;;4.30;;
52854;SDS011;38719;51.418;7.286;2023-04-01T15:22:51;6.32;;;5.00;;
52854;SDS011;38719;51.418;7.286;2023-04-01T15:25:30;6.05;;;4.90;;
52854;SDS011;38719;51.418;7.286;2023-04-01T15:28:08;6.10;;;5.03;;
52854;SDS011;38719;51.418;7.286;2023-04-01T15:30:44;8.40;;;5.60;;
52854;SDS011;38719;51.418;7.286;2023-04-01T15:33:20;6.60;;;5.35;;
52854;SDS011;38719;51.418;7.286;2023-04-01T15:36:00;6.38;;;5.60;;
52854;SDS011;38719;51.418;7.286;2023-04-01T15:38:38;6.65;;;4.90;;
52854;SDS011;38719;51.418;7.286;2023-04-01T15:41:13;5.63;;;5.03;;
52854;SDS011;38719;51.418;7.286;2023-04-01T15:43:43;5.95;;;4.97;;
52854;SDS011;38719;51.418;7.286;2023-04-01T15:46:14;5.78;;;5.00;;
52854;SDS011;38719;51.418;7.286;2023-04-01T15:49:04;6.45;;;5.78;;
52854;SDS011;38719;51.418;7.286;2023-04-01T15:51:51;11.00;;;5.72;;
52854;SDS011;38719;51.418;7.286;2023-04-01T15:54:28;7.50;;;6.00;;
52854;SDS011;38719;51.418;7.286;2023-04-01T15:57:14;10.13;;;5.82;;
52854;SDS011;38719;51.418;7.286;2023-04-01T16:00:02;6.28;;;5.68;;
52854;SDS011;38719;51.418;7.286;2023-04-01T16:02:42;9.90;;;6.40;;
52854;SDS011;38719;51.418;7.286;2023-04-01T16:05:33;8.07;;;6.18;;
52854;SDS011;38719;51.418;7.286;2023-04-01T16:13:54;11.65;;;6.07;;
52854;SDS011;38719;51.418;7.286;2023-04-01T16:16:33;6.70;;;5.88;;
52854;SDS011;38719;51.418;7.286;2023-04-01T16:19:17;7.78;;;5.72;;
52854;SDS011;38719;51.418;7.286;2023-04-01T16:22:02;7.57;;;5.22;;
52854;SDS011;38719;51.418;7.286;2023-04-01T16:24:35;5.93;;;5.22;;
52854;SDS011;38719;51.418;7.286;2023-04-01T16:27:11;6.20;;;4.88;;
52854;SDS011;38719;51.418;7.286;2023-04-01T16:29:45;5.63;;;4.63;;
52854;SDS011;38719;51.418;7.286;2023-04-01T16:32:18;7.32;;;4.95;;
52854;SDS011;38719;51.418;7.286;2023-04-01T16:35:04;6.47;;;4.88;;
52854;SDS011;38719;51.418;7.286;2023-04-01T16:37:47;4.22;;;3.83;;
52854;SDS011;38719;51.418;7.286;2023-04-01T16:40:22;4.93;;;4.07;;
52854;SDS011;38719;51.418;7.286;2023-04-01T16:43:06;4.35;;;3.92;;
52854;SDS011;38719;51.418;7.286;2023-04-01T16:45:41;6.20;;;4.50;;
52854;SDS011;38719;51.418;7.286;2023-04-01T16:48:15;4.68;;;3.80;;
52854;SDS011;38719;51.418;7.286;2023-04-01T16:50:48;4.18;;;3.78;;
52854;SDS011;38719;51.418;7.286;2023-04-01T16:53:22;6.38;;;4.28;;